sensor_id;sensor_type;location;lat;lon;timestamp;pressure;altitude;pressure_sealevel;temperature;humidity
74794;BME280;63320;50.768;6.724;2023-05-07T00:00:04;100232.97;;;13.70;87.09
74794;BME280;63320;50.768;6.724;2023-05-07T00:02:31;100229.38;;;13.71;86.88
74794;BME280;63320;50.768;6.724;2023-05-07T00:04:56;100234.47;;;13.74;87.04
74794;BME280;63320;50.768;6.724;2023-05-07T00:07:22;100230.13;;;13.73;86.69
74794;BME280;63320;50.768;6.724;2023-05-07T00:09:47;100237.78;;;13.78;86.71
74794;BME280;63320;50.768;6.724;2023-05-07T00:12:12;100235.97;;;13.79;86.05
74794;BME280;63320;50.768;6.724;2023-05-07T00:14:38;100233.63;;;13.88;86.23
74794;BME280;63320;50.768;6.724;2023-05-07T00:17:03;100231.34;;;13.82;85.96
74794;BME280;63320;50.768;6.724;2023-05-07T00:19:30;100234.00;;;13.82;86.02
74794;BME280;63320;50.768;6.724;2023-05-07T00:21:55;100225.28;;;13.80;86.10
74794;BME280;63320;50.768;6.724;2023-05-07T00:24:20;100232.09;;;13.84;85.71
74794;BME280;63320;50.768;6.724;2023-05-07T00:26:46;100230.97;;;13.88;85.18
74794;BME280;63320;50.768;6.724;2023-05-07T00:29:11;100232.38;;;13.80;84.96
74794;BME280;63320;50.768;6.724;2023-05-07T00:31:36;100229.75;;;13.80;85.06
74794;BME280;63320;50.768;6.724;2023-05-07T00:34:02;100225.28;;;13.80;85.29
74794;BME280;63320;50.768;6.724;2023-05-07T00:36:29;100228.63;;;13.84;84.89
74794;BME280;63320;50.768;6.724;2023-05-07T00:38:54;100215.50;;;13.82;84.96
74794;BME280;63320;50.768;6.724;2023-05-07T00:41:20;100212.28;;;13.77;84.83
74794;BME280;63320;50.768;6.724;2023-05-07T00:43:45;100213.59;;;13.84;84.38
74794;BME280;63320;50.768;6.724;2023-05-07T00:46:10;100212.66;;;13.85;84.56
74794;BME280;63320;50.768;6.724;2023-05-07T00:48:36;100210.00;;;13.85;84.51
74794;BME280;63320;50.768;6.724;2023-05-07T00:51:01;100209.38;;;13.82;84.35
74794;BME280;63320;50.768;6.724;2023-05-07T00:53:28;100209.09;;;13.86;84.37
74794;BME280;63320;50.768;6.724;2023-05-07T00:55:53;100205.66;;;13.84;84.73
74794;BME280;63320;50.768;6.724;2023-05-07T00:58:19;100217.19;;;13.83;85.01
74794;BME280;63320;50.768;6.724;2023-05-07T01:00:45;100214.28;;;13.88;85.20
74794;BME280;63320;50.768;6.724;2023-05-07T01:03:10;100217.19;;;13.83;86.14
74794;BME280;63320;50.768;6.724;2023-05-07T01:05:35;100213.59;;;13.84;86.42
74794;BME280;63320;50.768;6.724;2023-05-07T01:08:01;100216.25;;;13.84;86.51
74794;BME280;63320;50.768;6.724;2023-05-07T01:10:29;100212.09;;;13.80;86.56
74794;BME280;63320;50.768;6.724;2023-05-07T01:12:55;100201.63;;;13.79;87.02
74794;BME280;63320;50.768;6.724;2023-05-07T01:15:20;100198.88;;;13.80;87.03
74794;BME280;63320;50.768;6.724;2023-05-07T01:17:45;100192.56;;;13.83;87.70
74794;BME280;63320;50.768;6.724;2023-05-07T01:20:11;100192.66;;;13.81;87.94
74794;BME280;63320;50.768;6.724;2023-05-07T01:22:38;100204.53;;;13.88;87.82
74794;BME280;63320;50.768;6.724;2023-05-07T01:25:04;100201.22;;;13.85;88.23
74794;BME280;63320;50.768;6.724;2023-05-07T01:27:29;100202.97;;;13.86;88.77
74794;BME280;63320;50.768;6.724;2023-05-07T01:29:55;100197.09;;;13.81;89.29
74794;BME280;63320;50.768;6.724;2023-05-07T01:32:27;100200.66;;;13.80;89.55
74794;BME280;63320;50.768;6.724;2023-05-07T01:34:54;100195.88;;;13.72;89.84
74794;BME280;63320;50.768;6.724;2023-05-07T01:37:20;100194.19;;;13.71;90.07
74794;BME280;63320;50.768;6.724;2023-05-07T01:39:48;100201.44;;;13.67;90.21
74794;BME280;63320;50.768;6.724;2023-05-07T01:42:13;100204.91;;;13.68;90.21
74794;BME280;63320;50.768;6.724;2023-05-07T01:44:39;100196.25;;;13.66;90.50
74794;BME280;63320;50.768;6.724;2023-05-07T01:47:04;100200.03;;;13.62;90.69
74794;BME280;63320;50.768;6.724;2023-05-07T01:49:30;100205.09;;;13.65;90.69
74794;BME280;63320;50.768;6.724;2023-05-07T01:51:55;100199.06;;;13.63;90.81
74794;BME280;63320;50.768;6.724;2023-05-07T01:54:25;100194.72;;;13.62;90.81
74794;BME280;63320;50.768;6.724;2023-05-07T01:56:52;100191.03;;;13.64;90.77
74794;BME280;63320;50.768;6.724;2023-05-07T01:59:17;100195.84;;;13.58;91.02
74794;BME280;63320;50.768;6.724;2023-05-07T02:01:42;100195.84;;;13.58;91.00
74794;BME280;63320;50.768;6.724;2023-05-07T02:04:08;100189.63;;;13.59;91.04
74794;BME280;63320;50.768;6.724;2023-05-07T02:06:33;100203.03;;;13.56;90.80
74794;BME280;63320;50.768;6.724;2023-05-07T02:08:58;100195.47;;;13.64;90.58
74794;BME280;63320;50.768;6.724;2023-05-07T02:11:23;100197.84;;;13.68;90.51
74794;BME280;63320;50.768;6.724;2023-05-07T02:13:50;100186.88;;;13.60;90.35
74794;BME280;63320;50.768;6.724;2023-05-07T02:16:15;100192.00;;;13.63;90.32
74794;BME280;63320;50.768;6.724;2023-05-07T02:18:41;100187.09;;;13.57;90.43
74794;BME280;63320;50.768;6.724;2023-05-07T02:21:06;100195.00;;;13.57;90.43
74794;BME280;63320;50.768;6.724;2023-05-07T02:23:32;100186.41;;;13.54;90.47
74794;BME280;63320;50.768;6.724;2023-05-07T02:25:57;100192.47;;;13.56;90.39
74794;BME280;63320;50.768;6.724;2023-05-07T02:28:22;100191.88;;;13.65;90.22
74794;BME280;63320;50.768;6.724;2023-05-07T02:30:49;100193.41;;;13.69;89.64
74794;BME280;63320;50.768;6.724;2023-05-07T02:33:14;100196.44;;;13.63;89.62
74794;BME280;63320;50.768;6.724;2023-05-07T02:35:39;100196.25;;;13.52;89.84
74794;BME280;63320;50.768;6.724;2023-05-07T02:38:05;100191.59;;;13.55;89.84
74794;BME280;63320;50.768;6.724;2023-05-07T02:40:30;100193.31;;;13.56;89.40
74794;BME280;63320;50.768;6.724;2023-05-07T02:42:55;100195.41;;;13.51;89.47
74794;BME280;63320;50.768;6.724;2023-05-07T02:45:21;100203.31;;;13.51;89.60
74794;BME280;63320;50.768;6.724;2023-05-07T02:47:47;100194.53;;;13.51;89.62
74794;BME280;63320;50.768;6.724;2023-05-07T02:50:13;100197.38;;;13.47;89.71
74794;BME280;63320;50.768;6.724;2023-05-07T02:52:38;100200.38;;;13.41;89.79
74794;BME280;63320;50.768;6.724;2023-05-07T02:55:04;100196.03;;;13.40;89.88
74794;BME280;63320;50.768;6.724;2023-05-07T02:57:30;100186.63;;;13.51;89.74
74794;BME280;63320;50.768;6.724;2023-05-07T02:59:57;100191.69;;;13.54;89.12
74794;BME280;63320;50.768;6.724;2023-05-07T03:02:22;100192.47;;;13.56;88.78
74794;BME280;63320;50.768;6.724;2023-05-07T03:04:49;100186.25;;;13.57;88.55
74794;BME280;63320;50.768;6.724;2023-05-07T03:07:14;100188.88;;;13.57;88.32
74794;BME280;63320;50.768;6.724;2023-05-07T03:09:40;100181.31;;;13.36;88.08
74794;BME280;63320;50.768;6.724;2023-05-07T03:12:05;100177.34;;;13.43;88.40
74794;BME280;63320;50.768;6.724;2023-05-07T03:14:31;100179.59;;;13.35;88.69
74794;BME280;63320;50.768;6.724;2023-05-07T03:16:56;100178.44;;;13.25;88.86
74794;BME280;63320;50.768;6.724;2023-05-07T03:19:21;100179.41;;;13.24;89.21
74794;BME280;63320;50.768;6.724;2023-05-07T03:21:48;100175.16;;;13.21;89.27
74794;BME280;63320;50.768;6.724;2023-05-07T03:24:13;100173.88;;;13.13;89.36
74794;BME280;63320;50.768;6.724;2023-05-07T03:26:39;100182.38;;;13.18;89.35
74794;BME280;63320;50.768;6.724;2023-05-07T03:29:04;100183.72;;;13.25;89.17
74794;BME280;63320;50.768;6.724;2023-05-07T03:31:30;100181.97;;;13.10;89.19
74794;BME280;63320;50.768;6.724;2023-05-07T03:33:56;100191.91;;;13.20;89.45
74794;BME280;63320;50.768;6.724;2023-05-07T03:36:22;100187.31;;;13.24;88.96
74794;BME280;63320;50.768;6.724;2023-05-07T03:38:49;100188.47;;;13.34;89.09
74794;BME280;63320;50.768;6.724;2023-05-07T03:41:15;100183.31;;;13.17;89.36
74794;BME280;63320;50.768;6.724;2023-05-07T03:43:40;100188.72;;;13.15;89.33
74794;BME280;63320;50.768;6.724;2023-05-07T03:46:06;100188.19;;;13.09;89.42
74794;BME280;63320;50.768;6.724;2023-05-07T03:48:31;100185.75;;;13.06;89.55
74794;BME280;63320;50.768;6.724;2023-05-07T03:50:57;100180.47;;;13.06;89.51
74794;BME280;63320;50.768;6.724;2023-05-07T03:53:23;100188.47;;;13.04;89.78
74794;BME280;63320;50.768;6.724;2023-05-07T03:55:49;100191.94;;;13.05;90.10
74794;BME280;63320;50.768;6.724;2023-05-07T03:58:15;100190.41;;;13.16;89.82
74794;BME280;63320;50.768;6.724;2023-05-07T04:00:40;100191.41;;;13.14;89.75
74794;BME280;63320;50.768;6.724;2023-05-07T04:03:06;100194.16;;;13.12;89.72
74794;BME280;63320;50.768;6.724;2023-05-07T04:05:31;100199.59;;;13.09;89.76
74794;BME280;63320;50.768;6.724;2023-05-07T04:07:57;100200.28;;;13.13;89.81
74794;BME280;63320;50.768;6.724;2023-05-07T04:10:23;100196.97;;;13.09;89.87
74794;BME280;63320;50.768;6.724;2023-05-07T04:12:49;100198.06;;;13.21;89.88
74794;BME280;63320;50.768;6.724;2023-05-07T04:15:15;100198.81;;;13.23;89.11
74794;BME280;63320;50.768;6.724;2023-05-07T04:17:40;100191.75;;;13.24;89.49
74794;BME280;63320;50.768;6.724;2023-05-07T04:20:08;100192.22;;;13.30;89.53
74794;BME280;63320;50.768;6.724;2023-05-07T04:22:33;100196.22;;;13.37;89.10
74794;BME280;63320;50.768;6.724;2023-05-07T04:24:59;100196.66;;;13.30;89.04
74794;BME280;63320;50.768;6.724;2023-05-07T04:27:24;100198.47;;;13.29;89.25
74794;BME280;63320;50.768;6.724;2023-05-07T04:29:51;100190.91;;;13.23;89.47
74794;BME280;63320;50.768;6.724;2023-05-07T04:32:16;100188.50;;;13.18;89.66
74794;BME280;63320;50.768;6.724;2023-05-07T04:34:41;100183.31;;;13.17;90.13
74794;BME280;63320;50.768;6.724;2023-05-07T04:37:06;100184.06;;;13.19;89.95
74794;BME280;63320;50.768;6.724;2023-05-07T04:39:32;100178.44;;;13.25;90.03
74794;BME280;63320;50.768;6.724;2023-05-07T04:41:57;100176.34;;;13.16;89.82
74794;BME280;63320;50.768;6.724;2023-05-07T04:44:23;100177.84;;;13.20;89.99
74794;BME280;63320;50.768;6.724;2023-05-07T04:46:49;100178.09;;;13.31;89.49
74794;BME280;63320;50.768;6.724;2023-05-07T04:49:15;100179.41;;;13.24;89.55
74794;BME280;63320;50.768;6.724;2023-05-07T04:51:40;100178.66;;;13.22;89.48
74794;BME280;63320;50.768;6.724;2023-05-07T04:54:05;100184.88;;;13.35;89.30
74794;BME280;63320;50.768;6.724;2023-05-07T04:56:31;100182.53;;;13.31;89.03
74794;BME280;63320;50.768;6.724;2023-05-07T04:58:56;100182.72;;;13.28;89.31
74794;BME280;63320;50.768;6.724;2023-05-07T05:01:21;100191.03;;;13.36;89.24
74794;BME280;63320;50.768;6.724;2023-05-07T05:03:48;100199.44;;;13.42;88.74
74794;BME280;63320;50.768;6.724;2023-05-07T05:06:13;100198.03;;;13.51;88.28
74794;BME280;63320;50.768;6.724;2023-05-07T05:08:38;100202.09;;;13.57;87.81
74794;BME280;63320;50.768;6.724;2023-05-07T05:11:04;100201.59;;;13.64;87.72
74794;BME280;63320;50.768;6.724;2023-05-07T05:13:29;100200.38;;;13.70;87.13
74794;BME280;63320;50.768;6.724;2023-05-07T05:15:55;100206.91;;;13.79;87.05
74794;BME280;63320;50.768;6.724;2023-05-07T05:18:20;100208.13;;;13.73;86.86
74794;BME280;63320;50.768;6.724;2023-05-07T05:20:47;100202.66;;;13.76;86.82
74794;BME280;63320;50.768;6.724;2023-05-07T05:23:12;100210.03;;;13.71;86.85
74794;BME280;63320;50.768;6.724;2023-05-07T05:25:37;100212.84;;;13.68;87.52
74794;BME280;63320;50.768;6.724;2023-05-07T05:28:03;100216.06;;;13.73;86.91
74794;BME280;63320;50.768;6.724;2023-05-07T05:30:28;100214.25;;;13.73;87.27
74794;BME280;63320;50.768;6.724;2023-05-07T05:32:53;100220.00;;;13.80;87.04
74794;BME280;63320;50.768;6.724;2023-05-07T05:35:19;100211.81;;;13.85;86.91
74794;BME280;63320;50.768;6.724;2023-05-07T05:37:46;100217.66;;;13.90;86.70
74794;BME280;63320;50.768;6.724;2023-05-07T05:40:12;100215.22;;;13.87;86.91
74794;BME280;63320;50.768;6.724;2023-05-07T05:42:37;100212.47;;;13.88;87.14
74794;BME280;63320;50.768;6.724;2023-05-07T05:45:03;100217.38;;;13.94;86.82
74794;BME280;63320;50.768;6.724;2023-05-07T05:47:29;100222.94;;;13.90;87.14
74794;BME280;63320;50.768;6.724;2023-05-07T05:49:54;100219.72;;;13.99;87.01
74794;BME280;63320;50.768;6.724;2023-05-07T05:52:20;100225.69;;;13.88;88.04
74794;BME280;63320;50.768;6.724;2023-05-07T05:54:46;100222.03;;;13.91;88.10
74794;BME280;63320;50.768;6.724;2023-05-07T05:57:12;100227.94;;;13.94;87.77
74794;BME280;63320;50.768;6.724;2023-05-07T05:59:37;100229.06;;;13.90;87.64
74794;BME280;63320;50.768;6.724;2023-05-07T06:02:02;100226.16;;;13.95;87.83
74794;BME280;63320;50.768;6.724;2023-05-07T06:04:28;100236.53;;;13.98;87.98
74794;BME280;63320;50.768;6.724;2023-05-07T06:06:53;100235.69;;;13.97;88.37
74794;BME280;63320;50.768;6.724;2023-05-07T06:09:18;100236.72;;;13.95;88.41
74794;BME280;63320;50.768;6.724;2023-05-07T06:11:45;100230.13;;;14.02;87.89
74794;BME280;63320;50.768;6.724;2023-05-07T06:14:10;100230.41;;;13.97;88.03
74794;BME280;63320;50.768;6.724;2023-05-07T06:16:36;100232.19;;;14.11;87.28
74794;BME280;63320;50.768;6.724;2023-05-07T06:19:01;100234.34;;;14.19;87.19
74794;BME280;63320;50.768;6.724;2023-05-07T06:21:26;100237.09;;;14.17;86.98
74794;BME280;63320;50.768;6.724;2023-05-07T06:23:52;100245.50;;;14.24;86.75
74794;BME280;63320;50.768;6.724;2023-05-07T06:26:17;100234.72;;;14.27;86.62
74794;BME280;63320;50.768;6.724;2023-05-07T06:28:44;100240.38;;;14.35;86.45
74794;BME280;63320;50.768;6.724;2023-05-07T06:31:13;100246.63;;;14.48;86.09
74794;BME280;63320;50.768;6.724;2023-05-07T06:33:39;100242.44;;;14.59;85.73
74794;BME280;63320;50.768;6.724;2023-05-07T06:36:05;100245.81;;;14.61;85.68
74794;BME280;63320;50.768;6.724;2023-05-07T06:38:31;100246.69;;;14.61;85.95
74794;BME280;63320;50.768;6.724;2023-05-07T06:40:56;100248.16;;;14.65;86.37
74794;BME280;63320;50.768;6.724;2023-05-07T06:43:21;100250.75;;;14.67;86.49
74794;BME280;63320;50.768;6.724;2023-05-07T06:45:48;100247.97;;;14.68;84.92
74794;BME280;63320;50.768;6.724;2023-05-07T06:48:13;100239.59;;;14.89;82.90
74794;BME280;63320;50.768;6.724;2023-05-07T06:50:39;100247.78;;;14.98;82.15
74794;BME280;63320;50.768;6.724;2023-05-07T06:53:04;100237.53;;;15.07;82.83
74794;BME280;63320;50.768;6.724;2023-05-07T06:55:29;100243.47;;;15.10;81.72
74794;BME280;63320;50.768;6.724;2023-05-07T06:57:55;100241.47;;;15.14;83.21
74794;BME280;63320;50.768;6.724;2023-05-07T07:00:20;100240.50;;;15.15;82.61
74794;BME280;63320;50.768;6.724;2023-05-07T07:02:47;100241.06;;;15.20;82.34
74794;BME280;63320;50.768;6.724;2023-05-07T07:05:12;100237.56;;;15.19;81.28
74794;BME280;63320;50.768;6.724;2023-05-07T07:07:38;100241.81;;;15.22;81.14
74794;BME280;63320;50.768;6.724;2023-05-07T07:10:03;100248.50;;;15.27;80.95
74794;BME280;63320;50.768;6.724;2023-05-07T07:12:29;100244.88;;;15.28;83.55
74794;BME280;63320;50.768;6.724;2023-05-07T07:14:54;100249.88;;;15.33;82.13
74794;BME280;63320;50.768;6.724;2023-05-07T07:17:19;100249.22;;;15.29;81.61
74794;BME280;63320;50.768;6.724;2023-05-07T07:19:46;100253.19;;;15.37;83.02
74794;BME280;63320;50.768;6.724;2023-05-07T07:22:11;100247.97;;;15.35;81.73
74794;BME280;63320;50.768;6.724;2023-05-07T07:24:37;100245.84;;;15.40;83.30
74794;BME280;63320;50.768;6.724;2023-05-07T07:27:02;100253.81;;;15.40;82.55
74794;BME280;63320;50.768;6.724;2023-05-07T07:29:27;100258.19;;;15.41;83.35
74794;BME280;63320;50.768;6.724;2023-05-07T07:31:53;100258.72;;;15.46;83.66
74794;BME280;63320;50.768;6.724;2023-05-07T07:34:18;100256.25;;;15.43;83.99
74794;BME280;63320;50.768;6.724;2023-05-07T07:36:45;100263.06;;;15.47;83.67
74794;BME280;63320;50.768;6.724;2023-05-07T07:39:10;100259.88;;;15.55;84.17
74794;BME280;63320;50.768;6.724;2023-05-07T07:41:35;100260.50;;;15.59;83.59
74794;BME280;63320;50.768;6.724;2023-05-07T07:44:02;100265.63;;;15.62;83.49
74794;BME280;63320;50.768;6.724;2023-05-07T07:46:27;100256.72;;;15.63;82.30
74794;BME280;63320;50.768;6.724;2023-05-07T07:48:53;100268.00;;;15.66;83.35
74794;BME280;63320;50.768;6.724;2023-05-07T07:51:18;100269.25;;;15.73;83.93
74794;BME280;63320;50.768;6.724;2023-05-07T07:53:44;100262.69;;;15.79;83.59
74794;BME280;63320;50.768;6.724;2023-05-07T07:56:10;100266.28;;;15.78;83.60
74794;BME280;63320;50.768;6.724;2023-05-07T07:58:35;100267.00;;;15.80;83.92
74794;BME280;63320;50.768;6.724;2023-05-07T08:01:00;100270.66;;;15.92;83.54
74794;BME280;63320;50.768;6.724;2023-05-07T08:03:26;100280.06;;;15.96;82.81
74794;BME280;63320;50.768;6.724;2023-05-07T08:05:51;100274.44;;;16.00;82.35
74794;BME280;63320;50.768;6.724;2023-05-07T08:08:16;100271.47;;;16.05;81.58
74794;BME280;63320;50.768;6.724;2023-05-07T08:10:43;100271.59;;;16.03;80.34
74794;BME280;63320;50.768;6.724;2023-05-07T08:13:09;100280.47;;;16.15;79.96
74794;BME280;63320;50.768;6.724;2023-05-07T08:15:34;100279.81;;;16.24;79.99
74794;BME280;63320;50.768;6.724;2023-05-07T08:18:00;100279.72;;;16.26;80.57
74794;BME280;63320;50.768;6.724;2023-05-07T08:20:26;100273.69;;;16.24;80.85
74794;BME280;63320;50.768;6.724;2023-05-07T08:22:51;100274.19;;;16.29;80.69
74794;BME280;63320;50.768;6.724;2023-05-07T08:25:16;100262.94;;;16.38;79.47
74794;BME280;63320;50.768;6.724;2023-05-07T08:27:43;100271.94;;;16.48;79.66
74794;BME280;63320;50.768;6.724;2023-05-07T08:30:09;100279.78;;;16.50;79.39
74794;BME280;63320;50.768;6.724;2023-05-07T08:32:35;100269.69;;;16.55;79.37
74794;BME280;63320;50.768;6.724;2023-05-07T08:35:00;100279.31;;;16.56;78.73
74794;BME280;63320;50.768;6.724;2023-05-07T08:37:25;100282.81;;;16.56;79.60
74794;BME280;63320;50.768;6.724;2023-05-07T08:39:51;100285.66;;;16.66;79.77
74794;BME280;63320;50.768;6.724;2023-05-07T08:42:17;100285.34;;;16.71;80.23
74794;BME280;63320;50.768;6.724;2023-05-07T08:44:45;100281.66;;;16.73;80.60
74794;BME280;63320;50.768;6.724;2023-05-07T08:47:11;100276.91;;;16.90;80.77
74794;BME280;63320;50.768;6.724;2023-05-07T08:49:36;100281.16;;;16.92;80.39
74794;BME280;63320;50.768;6.724;2023-05-07T08:52:02;100265.31;;;16.91;80.64
74794;BME280;63320;50.768;6.724;2023-05-07T08:54:27;100266.00;;;17.05;81.77
74794;BME280;63320;50.768;6.724;2023-05-07T08:56:53;100271.56;;;17.02;80.97
74794;BME280;63320;50.768;6.724;2023-05-07T08:59:18;100278.09;;;17.09;80.09
74794;BME280;63320;50.768;6.724;2023-05-07T09:01:45;100271.34;;;17.17;78.38
74794;BME280;63320;50.768;6.724;2023-05-07T09:04:10;100270.78;;;17.24;76.65
74794;BME280;63320;50.768;6.724;2023-05-07T09:06:36;100267.47;;;17.09;76.66
74794;BME280;63320;50.768;6.724;2023-05-07T09:09:01;100272.47;;;17.25;75.60
74794;BME280;63320;50.768;6.724;2023-05-07T09:11:26;100267.25;;;17.13;75.52
74794;BME280;63320;50.768;6.724;2023-05-07T09:13:53;100263.38;;;17.17;75.84
74794;BME280;63320;50.768;6.724;2023-05-07T09:16:20;100260.22;;;17.47;74.62
74794;BME280;63320;50.768;6.724;2023-05-07T09:18:50;100256.63;;;17.48;74.30
74794;BME280;63320;50.768;6.724;2023-05-07T09:21:17;100252.91;;;17.26;74.97
74794;BME280;63320;50.768;6.724;2023-05-07T09:23:43;100257.22;;;17.51;73.83
74794;BME280;63320;50.768;6.724;2023-05-07T09:26:08;100257.97;;;17.65;73.08
74794;BME280;63320;50.768;6.724;2023-05-07T09:28:33;100265.78;;;17.79;72.63
74794;BME280;63320;50.768;6.724;2023-05-07T09:30:59;100259.13;;;17.73;72.89
74794;BME280;63320;50.768;6.724;2023-05-07T09:33:27;100263.06;;;17.68;73.97
74794;BME280;63320;50.768;6.724;2023-05-07T09:35:53;100261.56;;;17.88;71.87
74794;BME280;63320;50.768;6.724;2023-05-07T09:38:19;100257.19;;;17.86;71.72
74794;BME280;63320;50.768;6.724;2023-05-07T09:40:46;100260.94;;;17.95;71.30
74794;BME280;63320;50.768;6.724;2023-05-07T09:43:13;100261.66;;;17.75;70.96
74794;BME280;63320;50.768;6.724;2023-05-07T09:45:39;100262.06;;;17.93;70.65
74794;BME280;63320;50.768;6.724;2023-05-07T09:48:05;100265.06;;;17.88;69.83
74794;BME280;63320;50.768;6.724;2023-05-07T09:50:36;100268.44;;;18.01;70.24
74794;BME280;63320;50.768;6.724;2023-05-07T09:53:09;100265.56;;;18.04;70.21
74794;BME280;63320;50.768;6.724;2023-05-07T09:55:35;100269.91;;;18.17;69.83
74794;BME280;63320;50.768;6.724;2023-05-07T09:58:02;100258.78;;;18.34;68.74
74794;BME280;63320;50.768;6.724;2023-05-07T10:00:30;100258.91;;;18.32;68.50
74794;BME280;63320;50.768;6.724;2023-05-07T10:02:57;100253.44;;;18.34;68.32
74794;BME280;63320;50.768;6.724;2023-05-07T10:05:22;100259.63;;;18.34;68.93
74794;BME280;63320;50.768;6.724;2023-05-07T10:07:48;100263.09;;;18.46;70.15
74794;BME280;63320;50.768;6.724;2023-05-07T10:10:15;100255.84;;;18.59;69.98
74794;BME280;63320;50.768;6.724;2023-05-07T10:12:41;100255.69;;;18.72;66.12
74794;BME280;63320;50.768;6.724;2023-05-07T10:15:07;100253.16;;;18.71;66.56
74794;BME280;63320;50.768;6.724;2023-05-07T10:17:34;100252.94;;;18.74;66.83
74794;BME280;63320;50.768;6.724;2023-05-07T10:20:00;100246.34;;;18.89;67.48
74794;BME280;63320;50.768;6.724;2023-05-07T10:22:26;100254.25;;;18.79;67.48
74794;BME280;63320;50.768;6.724;2023-05-07T10:24:52;100250.94;;;18.87;64.54
74794;BME280;63320;50.768;6.724;2023-05-07T10:27:20;100255.28;;;19.20;63.30
74794;BME280;63320;50.768;6.724;2023-05-07T10:29:55;100252.25;;;19.25;62.14
74794;BME280;63320;50.768;6.724;2023-05-07T10:32:35;100251.03;;;19.29;63.54
74794;BME280;63320;50.768;6.724;2023-05-07T10:35:04;100250.75;;;19.32;63.34
74794;BME280;63320;50.768;6.724;2023-05-07T10:37:32;100244.56;;;19.31;65.01
74794;BME280;63320;50.768;6.724;2023-05-07T10:39:57;100250.72;;;19.43;64.62
74794;BME280;63320;50.768;6.724;2023-05-07T10:42:25;100247.06;;;19.44;65.61
74794;BME280;63320;50.768;6.724;2023-05-07T10:44:50;100249.19;;;19.29;67.70
74794;BME280;63320;50.768;6.724;2023-05-07T10:47:16;100258.25;;;19.38;67.57
74794;BME280;63320;50.768;6.724;2023-05-07T10:50:21;100253.94;;;19.26;66.94
74794;BME280;63320;50.768;6.724;2023-05-07T10:53:22;100258.56;;;19.24;67.34
74794;BME280;63320;50.768;6.724;2023-05-07T10:55:48;100261.00;;;19.15;66.89
74794;BME280;63320;50.768;6.724;2023-05-07T10:58:25;100264.59;;;19.26;67.05
74794;BME280;63320;50.768;6.724;2023-05-07T11:00:57;100251.41;;;19.24;66.26
74794;BME280;63320;50.768;6.724;2023-05-07T11:03:22;100244.50;;;19.22;66.64
74794;BME280;63320;50.768;6.724;2023-05-07T11:06:08;100245.41;;;19.32;66.33
74794;BME280;63320;50.768;6.724;2023-05-07T11:08:52;100243.34;;;19.35;65.74
74794;BME280;63320;50.768;6.724;2023-05-07T11:11:18;100245.47;;;19.21;65.61
74794;BME280;63320;50.768;6.724;2023-05-07T11:13:46;100248.75;;;19.45;64.47
74794;BME280;63320;50.768;6.724;2023-05-07T11:16:19;100241.44;;;19.47;64.58
74794;BME280;63320;50.768;6.724;2023-05-07T11:18:48;100243.09;;;19.38;64.20
74794;BME280;63320;50.768;6.724;2023-05-07T11:21:31;100242.88;;;19.51;63.28
74794;BME280;63320;50.768;6.724;2023-05-07T11:24:00;100247.47;;;19.60;62.59
74794;BME280;63320;50.768;6.724;2023-05-07T11:26:28;100247.34;;;19.62;63.53
74794;BME280;63320;50.768;6.724;2023-05-07T11:28:55;100248.22;;;19.30;64.64
74794;BME280;63320;50.768;6.724;2023-05-07T11:31:22;100258.03;;;19.51;63.87
74794;BME280;63320;50.768;6.724;2023-05-07T11:33:47;100253.56;;;19.51;65.23
74794;BME280;63320;50.768;6.724;2023-05-07T11:36:13;100250.97;;;19.40;63.56
74794;BME280;63320;50.768;6.724;2023-05-07T11:38:38;100249.28;;;19.39;63.93
74794;BME280;63320;50.768;6.724;2023-05-07T11:41:04;100246.53;;;19.29;64.91
74794;BME280;63320;50.768;6.724;2023-05-07T11:43:30;100246.16;;;19.34;64.25
74794;BME280;63320;50.768;6.724;2023-05-07T11:46:05;100252.56;;;19.31;63.75
74794;BME280;63320;50.768;6.724;2023-05-07T11:48:31;100249.00;;;19.21;63.65
74794;BME280;63320;50.768;6.724;2023-05-07T11:51:00;100256.78;;;19.13;62.83
74794;BME280;63320;50.768;6.724;2023-05-07T11:53:26;100256.34;;;19.08;64.19
74794;BME280;63320;50.768;6.724;2023-05-07T11:55:52;100260.72;;;18.98;64.43
74794;BME280;63320;50.768;6.724;2023-05-07T11:58:21;100260.88;;;18.85;67.16
74794;BME280;63320;50.768;6.724;2023-05-07T12:00:51;100263.59;;;18.74;65.67
74794;BME280;63320;50.768;6.724;2023-05-07T12:03:18;100259.72;;;18.78;66.30
74794;BME280;63320;50.768;6.724;2023-05-07T12:05:44;100264.28;;;18.76;67.10
74794;BME280;63320;50.768;6.724;2023-05-07T12:08:13;100264.31;;;18.53;68.82
74794;BME280;63320;50.768;6.724;2023-05-07T12:10:40;100271.34;;;18.54;69.81
74794;BME280;63320;50.768;6.724;2023-05-07T12:13:14;100274.22;;;18.51;69.22
74794;BME280;63320;50.768;6.724;2023-05-07T12:15:39;100271.69;;;18.50;69.01
74794;BME280;63320;50.768;6.724;2023-05-07T12:18:04;100268.19;;;18.49;68.14
74794;BME280;63320;50.768;6.724;2023-05-07T12:20:31;100277.03;;;18.50;69.00
74794;BME280;63320;50.768;6.724;2023-05-07T12:22:58;100276.69;;;18.43;69.37
74794;BME280;63320;50.768;6.724;2023-05-07T12:25:23;100280.41;;;18.41;71.48
74794;BME280;63320;50.768;6.724;2023-05-07T12:27:51;100286.72;;;18.40;72.91
74794;BME280;63320;50.768;6.724;2023-05-07T12:30:17;100288.91;;;18.34;71.04
74794;BME280;63320;50.768;6.724;2023-05-07T12:32:44;100287.44;;;18.30;71.00
74794;BME280;63320;50.768;6.724;2023-05-07T12:35:10;100286.25;;;18.23;72.59
74794;BME280;63320;50.768;6.724;2023-05-07T12:37:37;100287.94;;;18.13;74.08
74794;BME280;63320;50.768;6.724;2023-05-07T12:40:06;100306.06;;;17.97;72.79
74794;BME280;63320;50.768;6.724;2023-05-07T12:42:32;100308.84;;;17.60;78.02
74794;BME280;63320;50.768;6.724;2023-05-07T12:44:58;100310.81;;;17.34;81.38